Time;durP1;ratioP1;P1;durP2;ratioP2;P2;SDS_P1;SDS_P2;PMS_P1;PMS_P2;Temp;Humidity;BMP_temperature;BMP_pressure;BME280_temperature;BME280_humidity;BME280_pressure;Samples;Min_cycle;Max_cycle;Signal;HPM_P1;HPM_P2
2022/04/16 00:00:54;;;;;;;44.87;40.23;;;;;;;;;;5095804;28;20473;-82
2022/04/16 00:03:22;;;;;;;46.83;42.50;;;;;;;;;;5095779;28;20445;-81
2022/04/16 00:05:52;;;;;;;44.87;40.70;;;;;;;;;;5095265;28;20564;-81
2022/04/16 00:08:22;;;;;;;44.47;40.47;;;;;;;;;;5094791;28;20482;-81
2022/04/16 00:10:49;;;;;;;41.87;37.80;;;;;;;;;;5095638;28;20467;-80
2022/04/16 00:13:17;;;;;;;43.67;39.60;;;;;;;;;;5096138;28;20893;-81
2022/04/16 00:15:44;;;;;;;45.93;41.60;;;;;;;;;;5096932;28;20799;-81
2022/04/16 00:18:12;;;;;;;43.57;39.70;;;;;;;;;;5096510;28;20518;-83
2022/04/16 00:20:40;;;;;;;45.27;40.87;;;;;;;;;;5095927;28;20437;-84
2022/04/16 00:23:07;;;;;;;42.57;38.40;;;;;;;;;;5095404;28;20817;-84
2022/04/16 00:25:36;;;;;;;41.87;37.93;;;;;;;;;;5095468;28;20478;-83
2022/04/16 00:28:08;;;;;;;45.27;41.07;;;;;;;;;;5095266;28;20441;-84
2022/04/16 00:30:37;;;;;;;39.00;35.70;;;;;;;;;;5094977;28;20528;-84
2022/04/16 00:33:05;;;;;;;38.07;34.67;;;;;;;;;;5095130;28;20452;-83
2022/04/16 00:35:32;;;;;;;36.90;33.87;;;;;;;;;;5094897;28;20465;-84
2022/04/16 00:38:00;;;;;;;35.57;32.57;;;;;;;;;;5095214;28;20428;-84
2022/04/16 00:40:27;;;;;;;34.70;31.60;;;;;;;;;;5094862;28;20943;-84
2022/04/16 00:42:57;;;;;;;35.30;32.30;;;;;;;;;;5094948;28;20408;-84
2022/04/16 00:45:25;;;;;;;35.27;32.30;;;;;;;;;;5094955;28;20974;-83
2022/04/16 00:47:53;;;;;;;33.70;30.93;;;;;;;;;;5094849;28;20441;-84
2022/04/16 00:50:21;;;;;;;36.13;33.00;;;;;;;;;;5094469;28;20428;-84
2022/04/16 00:52:50;;;;;;;36.60;33.43;;;;;;;;;;5094515;28;20443;-83
2022/04/16 00:55:17;;;;;;;36.27;32.77;;;;;;;;;;5094809;28;20404;-84
2022/04/16 00:57:45;;;;;;;34.70;31.60;;;;;;;;;;5094863;28;20931;-84
2022/04/16 01:00:15;;;;;;;35.87;32.80;;;;;;;;;;5094662;28;20528;-84
2022/04/16 01:02:42;;;;;;;35.60;32.30;;;;;;;;;;5094342;28;20513;-84
2022/04/16 01:05:12;;;;;;;34.43;31.57;;;;;;;;;;5093214;28;20489;-84
2022/04/16 01:07:53;;;;;;;34.87;32.03;;;;;;;;;;5094763;28;20449;-83
2022/04/16 01:10:20;;;;;;;34.93;31.93;;;;;;;;;;5094067;28;20443;-83
2022/04/16 01:12:48;;;;;;;35.70;32.30;;;;;;;;;;5094476;28;20415;-84
2022/04/16 01:15:20;;;;;;;36.37;33.37;;;;;;;;;;5094130;28;20504;-84
2022/04/16 01:17:48;;;;;;;34.80;31.93;;;;;;;;;;5094088;28;20437;-83
2022/04/16 01:20:16;;;;;;;35.10;32.07;;;;;;;;;;5093748;28;20484;-84
2022/04/16 01:22:45;;;;;;;36.43;33.13;;;;;;;;;;5092743;28;20428;-83
2022/04/16 01:25:13;;;;;;;34.60;31.70;;;;;;;;;;5093695;28;20485;-83
2022/04/16 01:27:43;;;;;;;34.43;31.43;;;;;;;;;;5093924;28;20547;-84
2022/04/16 01:30:11;;;;;;;35.83;32.73;;;;;;;;;;5094287;28;20517;-84
2022/04/16 01:32:40;;;;;;;34.50;31.53;;;;;;;;;;5094192;28;20428;-83
2022/04/16 01:35:08;;;;;;;35.50;32.53;;;;;;;;;;5093571;28;20434;-83
2022/04/16 01:37:35;;;;;;;36.87;33.37;;;;;;;;;;5094104;28;20461;-84
2022/04/16 01:40:05;;;;;;;36.47;33.23;;;;;;;;;;5093993;28;20761;-83
2022/04/16 01:42:32;;;;;;;35.80;32.73;;;;;;;;;;5093464;28;20467;-83
2022/04/16 01:45:00;;;;;;;37.80;34.40;;;;;;;;;;5094026;28;20485;-83
2022/04/16 01:47:28;;;;;;;35.67;32.60;;;;;;;;;;5093592;28;20412;-83
2022/04/16 01:49:55;;;;;;;35.17;32.23;;;;;;;;;;5093599;28;20838;-84
2022/04/16 01:52:23;;;;;;;35.47;32.60;;;;;;;;;;5093571;28;20411;-84
2022/04/16 01:54:51;;;;;;;35.60;32.60;;;;;;;;;;5093446;28;20926;-84
2022/04/16 01:57:20;;;;;;;37.13;33.77;;;;;;;;;;5093512;28;21242;-83
2022/04/16 01:59:47;;;;;;;36.13;33.10;;;;;;;;;;5093740;28;20421;-84
2022/04/16 02:02:15;;;;;;;37.60;34.40;;;;;;;;;;5093340;28;20432;-84
2022/04/16 02:04:42;;;;;;;34.50;31.47;;;;;;;;;;5093116;28;20542;-83
2022/04/16 02:07:10;;;;;;;35.73;32.47;;;;;;;;;;5093449;28;20446;-84
2022/04/16 02:09:37;;;;;;;36.20;33.00;;;;;;;;;;5093607;28;20448;-84
2022/04/16 02:12:05;;;;;;;36.70;33.30;;;;;;;;;;5093339;28;20476;-84
2022/04/16 02:14:34;;;;;;;36.00;32.73;;;;;;;;;;5093203;28;20424;-84
2022/04/16 02:17:01;;;;;;;39.70;36.03;;;;;;;;;;5092987;28;20505;-84
2022/04/16 02:19:28;;;;;;;38.40;34.90;;;;;;;;;;5093034;28;20534;-84
2022/04/16 02:21:56;;;;;;;37.03;33.37;;;;;;;;;;5093027;28;20435;-84
2022/04/16 02:24:23;;;;;;;37.70;34.20;;;;;;;;;;5092970;28;20416;-84
2022/04/16 02:26:50;;;;;;;35.73;32.60;;;;;;;;;;5093195;28;20433;-84
2022/04/16 02:29:18;;;;;;;38.13;34.67;;;;;;;;;;5093169;28;20466;-84
2022/04/16 02:31:47;;;;;;;38.70;35.03;;;;;;;;;;5092817;28;20433;-84
2022/04/16 02:34:16;;;;;;;37.10;33.70;;;;;;;;;;5093451;28;20443;-83
2022/04/16 02:36:43;;;;;;;38.70;35.40;;;;;;;;;;5092836;28;20446;-83
2022/04/16 02:39:12;;;;;;;38.53;34.90;;;;;;;;;;5092985;28;20408;-83
2022/04/16 02:41:39;;;;;;;38.47;34.93;;;;;;;;;;5092719;28;20498;-83
2022/04/16 02:47:04;;;;;;;36.80;33.20;;;;;;;;;;5092655;28;20408;-83
2022/04/16 02:47:06;;;;;;;37.07;33.57;;;;;;;;;;5092873;28;20426;-83
2022/04/16 02:49:34;;;;;;;38.60;35.00;;;;;;;;;;5093389;28;20523;-83
2022/04/16 02:52:02;;;;;;;40.00;35.87;;;;;;;;;;5094689;28;20547;-83
2022/04/16 02:54:29;;;;;;;38.10;34.90;;;;;;;;;;5092886;28;20498;-83
2022/04/16 02:56:57;;;;;;;38.17;34.60;;;;;;;;;;5093096;28;20433;-83
2022/04/16 02:59:24;;;;;;;35.23;31.80;;;;;;;;;;5092574;28;20408;-83
2022/04/16 03:01:53;;;;;;;36.50;33.30;;;;;;;;;;5092933;28;20412;-84
2022/04/16 03:04:21;;;;;;;39.03;35.67;;;;;;;;;;5092759;28;20456;-84
2022/04/16 03:06:50;;;;;;;36.57;33.27;;;;;;;;;;5092639;28;20455;-83
2022/04/16 03:09:18;;;;;;;36.10;32.90;;;;;;;;;;5092640;28;20958;-84
2022/04/16 03:11:45;;;;;;;36.60;33.03;;;;;;;;;;5092419;28;20945;-84
2022/04/16 03:19:55;;;;;;;35.43;31.93;;;;;;;;;;5050165;28;20450;-84
2022/04/16 03:22:23;;;;;;;36.00;32.50;;;;;;;;;;5050210;28;20451;-84
2022/04/16 03:24:51;;;;;;;32.67;29.87;;;;;;;;;;5050025;28;20448;-83
2022/04/16 03:27:18;;;;;;;34.60;31.53;;;;;;;;;;5050049;28;21164;-84
2022/04/16 03:29:45;;;;;;;34.47;31.37;;;;;;;;;;5049828;28;20769;-84
2022/04/16 03:32:13;;;;;;;32.50;29.57;;;;;;;;;;5050080;28;20418;-84
2022/04/16 03:34:40;;;;;;;35.27;31.87;;;;;;;;;;5033281;28;20926;-84
2022/04/16 03:37:09;;;;;;;35.47;31.97;;;;;;;;;;5049838;28;20421;-84
2022/04/16 03:39:36;;;;;;;36.73;33.20;;;;;;;;;;5050010;28;20443;-84
2022/04/16 03:42:04;;;;;;;35.63;32.37;;;;;;;;;;5050018;28;20410;-84
2022/04/16 03:44:31;;;;;;;35.33;32.03;;;;;;;;;;5053409;28;20414;-82
2022/04/16 03:46:59;;;;;;;35.63;32.00;;;;;;;;;;5053442;28;20465;-84
2022/04/16 03:49:26;;;;;;;34.70;31.00;;;;;;;;;;5053458;28;20845;-84
2022/04/16 03:51:53;;;;;;;33.00;29.90;;;;;;;;;;5056957;28;20447;-83
2022/04/16 04:00:00;;;;;;;30.37;27.77;;;;;;;;;;5095769;28;20555;-84
2022/04/16 04:02:27;;;;;;;29.07;26.57;;;;;;;;;;5095992;28;20477;-84
2022/04/16 04:04:55;;;;;;;28.67;26.57;;;;;;;;;;5095220;28;21136;-83
2022/04/16 04:07:23;;;;;;;30.83;28.40;;;;;;;;;;5095445;28;20445;-84
2022/04/16 04:09:52;;;;;;;29.63;26.93;;;;;;;;;;5095240;28;20484;-85
2022/04/16 04:12:19;;;;;;;27.87;25.47;;;;;;;;;;5095635;28;20433;-83
2022/04/16 04:14:47;;;;;;;29.13;26.60;;;;;;;;;;5095809;28;20441;-84
2022/04/16 04:17:15;;;;;;;27.13;25.02;;;;;;;;;;5094962;28;20440;-84
2022/04/16 04:19:43;;;;;;;32.80;29.50;;;;;;;;;;5095368;28;20199;-84
2022/04/16 04:22:12;;;;;;;30.43;27.63;;;;;;;;;;5095128;28;20450;-84
2022/04/16 04:24:40;;;;;;;29.37;27.07;;;;;;;;;;5095148;28;20423;-83
2022/04/16 04:27:09;;;;;;;29.57;27.20;;;;;;;;;;5095330;28;20451;-84
2022/04/16 04:29:37;;;;;;;28.33;25.77;;;;;;;;;;5095093;28;20930;-84
2022/04/16 04:32:04;;;;;;;29.00;26.60;;;;;;;;;;5095988;28;20766;-89
2022/04/16 04:34:32;;;;;;;28.27;25.97;;;;;;;;;;5096075;28;20415;-89
2022/04/16 04:36:59;;;;;;;29.93;27.30;;;;;;;;;;5096424;28;20845;-89
2022/04/16 04:39:26;;;;;;;29.90;27.23;;;;;;;;;;5096080;28;20445;-88
2022/04/16 04:41:54;;;;;;;28.37;26.17;;;;;;;;;;5095020;28;20485;-89
2022/04/16 04:44:23;;;;;;;28.37;26.17;;;;;;;;;;5096045;28;20419;-88
2022/04/16 04:46:50;;;;;;;30.20;27.73;;;;;;;;;;5095927;28;20485;-89
2022/04/16 04:49:17;;;;;;;28.37;25.93;;;;;;;;;;5095991;28;20421;-89
2022/04/16 04:51:44;;;;;;;27.20;25.00;;;;;;;;;;5095737;28;20413;-89
2022/04/16 04:54:12;;;;;;;28.30;26.10;;;;;;;;;;5095202;28;20393;-89
2022/04/16 04:56:39;;;;;;;29.40;26.70;;;;;;;;;;5095701;28;20462;-89
2022/04/16 04:59:07;;;;;;;29.67;27.23;;;;;;;;;;5095991;28;20460;-89
2022/04/16 05:01:35;;;;;;;29.27;26.93;;;;;;;;;;5095708;28;20425;-89
2022/04/16 05:04:03;;;;;;;29.33;27.00;;;;;;;;;;5095479;28;20873;-89
2022/04/16 05:06:30;;;;;;;29.53;26.73;;;;;;;;;;5095575;28;20476;-89
2022/04/16 05:08:58;;;;;;;27.77;25.47;;;;;;;;;;5095550;28;20469;-89
2022/04/16 05:11:25;;;;;;;28.77;26.77;;;;;;;;;;5095568;28;20434;-89
2022/04/16 05:13:52;;;;;;;28.83;26.53;;;;;;;;;;5095325;28;20436;-89
2022/04/16 05:16:19;;;;;;;27.30;25.17;;;;;;;;;;5095198;28;20473;-89
2022/04/16 05:18:48;;;;;;;29.80;27.30;;;;;;;;;;5095188;28;20912;-90
2022/04/16 05:21:16;;;;;;;28.07;25.87;;;;;;;;;;5095735;28;20411;-89
2022/04/16 05:23:43;;;;;;;28.73;26.50;;;;;;;;;;5095693;28;20834;-90
2022/04/16 05:26:11;;;;;;;29.00;26.77;;;;;;;;;;5095374;28;20463;-89
2022/04/16 05:28:38;;;;;;;29.40;26.70;;;;;;;;;;5095054;28;20408;-89
2022/04/16 05:31:06;;;;;;;27.37;25.10;;;;;;;;;;5095205;28;20416;-89
2022/04/16 05:36:20;;;;;;;27.80;25.57;;;;;;;;;;5095020;28;20404;-90
2022/04/16 05:38:48;;;;;;;26.00;24.03;;;;;;;;;;5094081;28;20441;-90
2022/04/16 05:41:15;;;;;;;27.50;25.27;;;;;;;;;;5095196;28;20454;-89
2022/04/16 05:43:42;;;;;;;27.67;25.57;;;;;;;;;;5094762;28;20968;-88
2022/04/16 05:46:10;;;;;;;26.50;24.50;;;;;;;;;;5094728;28;20455;-89
2022/04/16 05:48:38;;;;;;;27.97;25.60;;;;;;;;;;5093518;28;20432;-89
2022/04/16 05:51:05;;;;;;;28.90;26.63;;;;;;;;;;5094799;28;20423;-88
2022/04/16 05:53:34;;;;;;;26.57;24.60;;;;;;;;;;5093617;28;20510;-89
2022/04/16 05:56:02;;;;;;;27.20;25.20;;;;;;;;;;5095003;28;20408;-89
2022/04/16 05:58:29;;;;;;;26.85;24.98;;;;;;;;;;5094710;28;20420;-88
2022/04/16 06:00:56;;;;;;;25.33;23.53;;;;;;;;;;5094561;28;20199;-89
2022/04/16 06:03:26;;;;;;;26.33;24.53;;;;;;;;;;5093377;28;20445;-90
2022/04/16 06:05:54;;;;;;;27.20;25.30;;;;;;;;;;5092131;28;20473;-88
2022/04/16 06:08:21;;;;;;;25.80;23.67;;;;;;;;;;5094664;28;20529;-88
2022/04/16 06:10:50;;;;;;;26.23;24.47;;;;;;;;;;5094124;28;20931;-88
2022/04/16 06:13:18;;;;;;;27.07;25.07;;;;;;;;;;5094757;28;20436;-89
2022/04/16 06:15:45;;;;;;;26.97;25.07;;;;;;;;;;5094146;28;20475;-87
2022/04/16 06:18:12;;;;;;;27.17;25.27;;;;;;;;;;5093361;28;20427;-88
2022/04/16 06:20:40;;;;;;;28.77;26.67;;;;;;;;;;5094310;28;20529;-88
2022/04/16 06:23:08;;;;;;;26.80;24.90;;;;;;;;;;5094159;28;20427;-89
2022/04/16 06:25:35;;;;;;;26.80;24.93;;;;;;;;;;5093080;28;20925;-87
2022/04/16 06:28:04;;;;;;;26.70;24.80;;;;;;;;;;5094489;28;20405;-88
2022/04/16 06:30:32;;;;;;;24.03;22.50;;;;;;;;;;5093788;28;20437;-88
2022/04/16 06:32:59;;;;;;;26.80;25.00;;;;;;;;;;5093652;28;20432;-87
2022/04/16 06:35:27;;;;;;;25.60;23.80;;;;;;;;;;5094046;28;20778;-87
2022/04/16 06:37:54;;;;;;;26.73;24.93;;;;;;;;;;5093714;28;20420;-87
2022/04/16 06:40:21;;;;;;;26.60;24.80;;;;;;;;;;5093947;28;20409;-88
2022/04/16 06:42:52;;;;;;;26.83;25.13;;;;;;;;;;5094091;28;20905;-87
2022/04/16 06:45:21;;;;;;;27.57;25.73;;;;;;;;;;5092992;28;20441;-85
2022/04/16 06:47:48;;;;;;;27.47;25.63;;;;;;;;;;5093414;28;20516;-84
2022/04/16 06:50:15;;;;;;;27.83;25.83;;;;;;;;;;5093438;28;20434;-85
2022/04/16 06:52:43;;;;;;;28.90;26.90;;;;;;;;;;5093730;28;20804;-87
2022/04/16 06:55:10;;;;;;;27.80;25.70;;;;;;;;;;5094239;28;20408;-87
2022/04/16 06:57:38;;;;;;;27.03;25.23;;;;;;;;;;5093943;28;20416;-87
2022/04/16 07:00:06;;;;;;;28.00;26.20;;;;;;;;;;5093438;28;20434;-87
2022/04/16 07:02:36;;;;;;;28.30;26.20;;;;;;;;;;5093443;28;20918;-87
2022/04/16 07:05:05;;;;;;;28.50;26.60;;;;;;;;;;5093935;28;20444;-87
2022/04/16 07:07:32;;;;;;;26.30;24.60;;;;;;;;;;5093988;28;20543;-89
2022/04/16 07:10:00;;;;;;;28.87;26.77;;;;;;;;;;5094027;28;20469;-87
2022/04/16 07:12:27;;;;;;;26.87;24.97;;;;;;;;;;5092829;28;20408;-89
2022/04/16 07:14:55;;;;;;;29.57;27.50;;;;;;;;;;5094116;28;20417;-92
2022/04/16 07:17:22;;;;;;;27.57;25.70;;;;;;;;;;5096008;28;20536;-86
2022/04/16 07:19:51;;;;;;;27.20;25.40;;;;;;;;;;5097140;28;21021;-89
2022/04/16 07:22:19;;;;;;;26.77;25.03;;;;;;;;;;5096909;28;21247;-86
2022/04/16 07:24:48;;;;;;;26.47;24.87;;;;;;;;;;5097056;28;20408;-86
2022/04/16 07:27:16;;;;;;;28.00;26.20;;;;;;;;;;5095787;28;21002;-87
2022/04/16 07:29:43;;;;;;;27.57;25.57;;;;;;;;;;5096784;28;20451;-87
2022/04/16 07:32:11;;;;;;;27.50;25.80;;;;;;;;;;5095932;28;20449;-86
2022/04/16 07:34:38;;;;;;;26.20;24.60;;;;;;;;;;5097038;28;20419;-87
2022/04/16 07:37:07;;;;;;;26.60;24.87;;;;;;;;;;5097161;28;20450;-84
2022/04/16 07:39:34;;;;;;;26.13;24.60;;;;;;;;;;5096551;28;20408;-85
2022/04/16 07:42:02;;;;;;;24.80;23.40;;;;;;;;;;5096339;28;20416;-85
2022/04/16 07:44:29;;;;;;;24.40;23.03;;;;;;;;;;5096428;28;20408;-85
2022/04/16 07:46:57;;;;;;;25.13;23.53;;;;;;;;;;5094753;28;20515;-85
2022/04/16 07:49:25;;;;;;;23.90;22.50;;;;;;;;;;5096759;28;20436;-94
2022/04/16 07:51:53;;;;;;;23.03;21.73;;;;;;;;;;5096735;28;20433;-85
2022/04/16 07:54:21;;;;;;;23.60;22.03;;;;;;;;;;5096016;28;20857;-85
2022/04/16 07:56:49;;;;;;;23.13;21.77;;;;;;;;;;5096494;28;20535;-85
2022/04/16 07:59:16;;;;;;;22.87;21.50;;;;;;;;;;5096599;28;20428;-85
2022/04/16 08:01:43;;;;;;;23.10;21.67;;;;;;;;;;5096319;28;20462;-86
2022/04/16 08:04:11;;;;;;;22.23;21.03;;;;;;;;;;5096138;28;20445;-85
2022/04/16 08:06:38;;;;;;;24.00;22.70;;;;;;;;;;5095720;28;20476;-85
2022/04/16 08:09:05;;;;;;;22.93;21.63;;;;;;;;;;5095965;28;20469;-85
2022/04/16 08:11:34;;;;;;;23.53;22.33;;;;;;;;;;5096195;28;20441;-85
2022/04/16 08:14:02;;;;;;;22.83;21.53;;;;;;;;;;5096042;28;20417;-85
2022/04/16 08:16:29;;;;;;;23.40;22.10;;;;;;;;;;5095714;28;20467;-83
2022/04/16 08:18:57;;;;;;;23.93;22.57;;;;;;;;;;5095909;28;20441;-89
2022/04/16 08:21:26;;;;;;;23.07;21.67;;;;;;;;;;5096133;28;20537;-86
2022/04/16 08:24:04;;;;;;;22.50;21.20;;;;;;;;;;5096192;28;20522;-86
2022/04/16 08:26:31;;;;;;;22.13;20.93;;;;;;;;;;5095932;28;20451;-87
2022/04/16 08:29:00;;;;;;;22.47;21.27;;;;;;;;;;5095201;28;20869;-86
2022/04/16 08:31:27;;;;;;;22.17;20.93;;;;;;;;;;5095958;28;20434;-87
2022/04/16 08:33:55;;;;;;;21.70;20.50;;;;;;;;;;5096124;28;20467;-86
2022/04/16 08:36:22;;;;;;;22.30;21.10;;;;;;;;;;5095858;28;20460;-83
2022/04/16 08:38:49;;;;;;;22.40;21.20;;;;;;;;;;5095745;28;20874;-86
2022/04/16 08:41:17;;;;;;;21.17;19.97;;;;;;;;;;5095584;28;20463;-86
2022/04/16 08:43:44;;;;;;;20.93;19.83;;;;;;;;;;5095755;28;20442;-86
2022/04/16 08:46:13;;;;;;;21.13;20.03;;;;;;;;;;5095617;28;20405;-86
2022/04/16 08:48:40;;;;;;;21.13;19.93;;;;;;;;;;5095422;28;20473;-85
2022/04/16 08:51:08;;;;;;;21.27;20.07;;;;;;;;;;5095542;28;20796;-86
2022/04/16 08:53:35;;;;;;;22.00;20.90;;;;;;;;;;5095222;28;20473;-86
2022/04/16 08:56:03;;;;;;;21.57;20.40;;;;;;;;;;5095480;28;20441;-86
2022/04/16 08:58:31;;;;;;;21.60;20.40;;;;;;;;;;5094720;28;20424;-85
2022/04/16 09:00:59;;;;;;;21.10;20.00;;;;;;;;;;5095178;28;20416;-85
2022/04/16 09:03:34;;;;;;;22.20;21.00;;;;;;;;;;5095024;28;20454;-86
2022/04/16 09:06:01;;;;;;;22.67;21.30;;;;;;;;;;5094768;28;20512;-85
2022/04/16 09:08:29;;;;;;;21.93;20.73;;;;;;;;;;5094803;28;20505;-86
2022/04/16 09:11:05;;;;;;;22.30;21.03;;;;;;;;;;5095295;28;20825;-84
2022/04/16 09:13:33;;;;;;;21.70;20.50;;;;;;;;;;5094817;28;20426;-85
2022/04/16 09:16:06;;;;;;;21.77;20.57;;;;;;;;;;5094463;28;20456;-85
2022/04/16 09:18:45;;;;;;;22.83;21.47;;;;;;;;;;5094587;28;20423;-84
2022/04/16 09:21:14;;;;;;;22.20;20.90;;;;;;;;;;5094727;28;20508;-85
2022/04/16 09:23:47;;;;;;;21.30;20.00;;;;;;;;;;5094509;28;20444;-84
2022/04/16 09:26:15;;;;;;;21.60;20.30;;;;;;;;;;5094480;28;20761;-84
2022/04/16 09:28:45;;;;;;;21.13;19.83;;;;;;;;;;5094246;28;20539;-83
2022/04/16 09:31:12;;;;;;;21.27;20.07;;;;;;;;;;5094000;28;20499;-85
2022/04/16 09:33:42;;;;;;;21.37;20.27;;;;;;;;;;5094469;28;20438;-84
2022/04/16 09:36:09;;;;;;;22.00;20.70;;;;;;;;;;5093755;28;20412;-84
2022/04/16 09:38:37;;;;;;;21.57;20.37;;;;;;;;;;5093897;28;20908;-85
2022/04/16 09:41:08;;;;;;;21.43;20.13;;;;;;;;;;5094424;28;20438;-87
2022/04/16 09:43:36;;;;;;;21.53;20.23;;;;;;;;;;5094946;28;20445;-87
2022/04/16 09:46:10;;;;;;;22.00;20.70;;;;;;;;;;5094392;28;20503;-86
2022/04/16 09:48:38;;;;;;;21.37;20.17;;;;;;;;;;5094250;28;20472;-88
2022/04/16 09:51:07;;;;;;;21.40;20.10;;;;;;;;;;5094164;28;20433;-85
2022/04/16 09:53:36;;;;;;;21.33;20.13;;;;;;;;;;5093795;28;20471;-85
2022/04/16 09:56:04;;;;;;;21.07;19.87;;;;;;;;;;5093810;28;20944;-86
2022/04/16 09:58:36;;;;;;;21.57;20.37;;;;;;;;;;5093965;28;20408;-84
2022/04/16 10:01:03;;;;;;;22.13;20.93;;;;;;;;;;5093975;28;20572;-85
2022/04/16 10:03:32;;;;;;;21.00;19.80;;;;;;;;;;5093662;28;20430;-86
2022/04/16 10:06:00;;;;;;;21.97;20.67;;;;;;;;;;5093690;28;20441;-83
2022/04/16 10:08:29;;;;;;;21.57;20.37;;;;;;;;;;5093655;28;20500;-86
2022/04/16 10:10:57;;;;;;;22.00;20.60;;;;;;;;;;5093950;28;21218;-85
2022/04/16 10:13:24;;;;;;;21.20;20.00;;;;;;;;;;5093835;28;20413;-84
2022/04/16 10:15:55;;;;;;;22.10;20.90;;;;;;;;;;5094122;28;20976;-86
2022/04/16 10:18:23;;;;;;;22.40;21.20;;;;;;;;;;5094418;28;20444;-85
2022/04/16 10:20:51;;;;;;;21.90;20.70;;;;;;;;;;5094095;28;20461;-86
2022/04/16 10:23:27;;;;;;;23.23;21.93;;;;;;;;;;5092852;28;20416;-86
2022/04/16 10:26:02;;;;;;;22.37;20.90;;;;;;;;;;5094063;28;20501;-85
2022/04/16 10:28:34;;;;;;;21.97;20.77;;;;;;;;;;5094308;28;20505;-86
2022/04/16 10:31:01;;;;;;;22.43;21.20;;;;;;;;;;5093989;28;20458;-86
2022/04/16 10:33:31;;;;;;;23.50;22.10;;;;;;;;;;5094041;28;20455;-87
2022/04/16 10:35:59;;;;;;;23.47;22.17;;;;;;;;;;5094076;28;20415;-86
2022/04/16 10:38:28;;;;;;;22.37;21.07;;;;;;;;;;5094245;28;20404;-87
2022/04/16 10:40:57;;;;;;;22.70;21.40;;;;;;;;;;5094365;28;20416;-87
2022/04/16 10:43:41;;;;;;;21.53;20.33;;;;;;;;;;5094306;28;20459;-86
2022/04/16 10:46:09;;;;;;;20.77;19.67;;;;;;;;;;5093897;28;20442;-85
2022/04/16 10:48:38;;;;;;;21.40;20.30;;;;;;;;;;5093526;28;20481;-83
2022/04/16 10:51:06;;;;;;;21.77;20.60;;;;;;;;;;5093490;28;20450;-83
2022/04/16 10:53:35;;;;;;;21.57;20.30;;;;;;;;;;5097578;28;20996;-83
2022/04/16 10:56:12;;;;;;;21.87;20.67;;;;;;;;;;5097303;28;20407;-82
2022/04/16 10:58:42;;;;;;;22.00;20.80;;;;;;;;;;5097270;28;21017;-83
2022/04/16 11:01:10;;;;;;;22.10;20.90;;;;;;;;;;5097428;28;20445;-83
2022/04/16 11:03:45;;;;;;;22.20;20.80;;;;;;;;;;5097392;28;20416;-85
2022/04/16 11:06:13;;;;;;;22.27;21.07;;;;;;;;;;5097191;28;20514;-85
2022/04/16 11:08:41;;;;;;;21.93;20.73;;;;;;;;;;5096869;28;21082;-84
2022/04/16 11:11:09;;;;;;;22.30;21.10;;;;;;;;;;5097135;28;20803;-85
2022/04/16 11:13:37;;;;;;;22.73;21.53;;;;;;;;;;5097081;28;20437;-85
2022/04/16 11:16:06;;;;;;;22.53;21.33;;;;;;;;;;5096951;28;20447;-85
2022/04/16 11:18:41;;;;;;;22.27;21.07;;;;;;;;;;5097296;28;20408;-84
2022/04/16 11:21:09;;;;;;;23.13;21.57;;;;;;;;;;5096580;28;20513;-85
2022/04/16 11:23:44;;;;;;;22.97;21.33;;;;;;;;;;5096773;28;20437;-85
2022/04/16 11:34:43;;;;;;;21.70;20.50;;;;;;;;;;5054131;28;20512;-84
2022/04/16 11:37:11;;;;;;;21.70;20.40;;;;;;;;;;5054353;28;20459;-85
2022/04/16 11:39:38;;;;;;;21.77;20.57;;;;;;;;;;5054198;28;20402;-85
2022/04/16 11:42:07;;;;;;;21.00;19.90;;;;;;;;;;5054151;28;20487;-85
2022/04/16 11:44:41;;;;;;;21.10;19.90;;;;;;;;;;5054402;28;20437;-85
2022/04/16 11:47:13;;;;;;;21.47;20.27;;;;;;;;;;5053933;28;20431;-84
2022/04/16 11:49:42;;;;;;;21.57;20.37;;;;;;;;;;5053639;28;20454;-84
2022/04/16 11:52:10;;;;;;;21.27;19.87;;;;;;;;;;5053789;28;20550;-85
2022/04/16 11:54:37;;;;;;;21.63;20.33;;;;;;;;;;5053593;28;20470;-83
2022/04/16 11:57:05;;;;;;;21.37;20.17;;;;;;;;;;5053616;28;20458;-85
2022/04/16 11:59:33;;;;;;;21.73;20.43;;;;;;;;;;5053458;28;20521;-85
2022/04/16 12:02:01;;;;;;;21.90;20.70;;;;;;;;;;5053317;28;20462;-84
2022/04/16 12:04:43;;;;;;;22.20;20.50;;;;;;;;;;5052438;28;20439;-85
2022/04/16 12:07:12;;;;;;;21.83;20.53;;;;;;;;;;5049599;28;20846;-85
2022/04/16 12:09:44;;;;;;;21.73;20.53;;;;;;;;;;5087516;28;20875;-85
2022/04/16 12:12:14;;;;;;;21.00;19.80;;;;;;;;;;5096002;28;20533;-85
2022/04/16 12:14:46;;;;;;;20.70;19.40;;;;;;;;;;5095980;28;20435;-85
2022/04/16 12:17:13;;;;;;;20.60;19.40;;;;;;;;;;5095393;28;20452;-85
2022/04/16 12:19:42;;;;;;;21.57;20.30;;;;;;;;;;5095946;28;20412;-85
2022/04/16 12:22:18;;;;;;;21.17;19.97;;;;;;;;;;5095318;28;20429;-85
2022/04/16 12:24:46;;;;;;;21.00;19.80;;;;;;;;;;5095891;28;20816;-85
2022/04/16 12:27:13;;;;;;;21.77;20.20;;;;;;;;;;5095305;28;20904;-84
2022/04/16 12:29:48;;;;;;;20.90;19.70;;;;;;;;;;5095517;28;20478;-85
2022/04/16 12:32:25;;;;;;;21.93;20.43;;;;;;;;;;5093988;28;20502;-84
2022/04/16 12:34:52;;;;;;;21.23;19.93;;;;;;;;;;5095428;28;20484;-85
2022/04/16 12:37:21;;;;;;;22.80;21.50;;;;;;;;;;5094445;28;20495;-85
2022/04/16 12:39:49;;;;;;;21.90;20.60;;;;;;;;;;5095455;28;20450;-85
2022/04/16 12:42:17;;;;;;;21.20;20.00;;;;;;;;;;5095184;28;20500;-85
2022/04/16 12:44:44;;;;;;;21.53;20.23;;;;;;;;;;5094970;28;20452;-85
2022/04/16 12:47:11;;;;;;;21.23;20.03;;;;;;;;;;5095536;28;20433;-87
2022/04/16 12:49:39;;;;;;;22.50;21.10;;;;;;;;;;5095847;28;20489;-85
2022/04/16 12:52:06;;;;;;;21.87;20.67;;;;;;;;;;5095615;28;20536;-87
2022/04/16 12:54:35;;;;;;;21.43;20.20;;;;;;;;;;5095144;28;20911;-86
2022/04/16 12:57:03;;;;;;;21.90;20.70;;;;;;;;;;5095533;28;20833;-85
2022/04/16 12:59:30;;;;;;;21.87;20.67;;;;;;;;;;5094969;28;20525;-86
2022/04/16 13:01:58;;;;;;;23.10;21.90;;;;;;;;;;5095285;28;20437;-85
2022/04/16 13:04:26;;;;;;;22.37;21.17;;;;;;;;;;5094641;28;20430;-83
2022/04/16 13:06:53;;;;;;;22.40;21.20;;;;;;;;;;5094939;28;20532;-83
2022/04/16 13:09:20;;;;;;;22.47;21.27;;;;;;;;;;5095077;28;20493;-82
2022/04/16 13:11:51;;;;;;;22.60;21.10;;;;;;;;;;5094450;28;20434;-81
2022/04/16 13:14:18;;;;;;;23.13;21.63;;;;;;;;;;5093792;28;20438;-82
2022/04/16 13:16:46;;;;;;;22.10;20.90;;;;;;;;;;5094140;28;20448;-81
2022/04/16 13:19:15;;;;;;;22.70;21.50;;;;;;;;;;5094207;28;20499;-80
2022/04/16 13:21:43;;;;;;;22.73;21.53;;;;;;;;;;5094244;28;20421;-81
2022/04/16 13:24:14;;;;;;;22.60;21.40;;;;;;;;;;5093967;28;20416;-81
2022/04/16 13:26:43;;;;;;;22.30;21.10;;;;;;;;;;5094028;28;20436;-85
2022/04/16 13:29:11;;;;;;;22.43;21.33;;;;;;;;;;5094422;28;20512;-80
2022/04/16 13:31:41;;;;;;;22.27;21.17;;;;;;;;;;5093811;28;20404;-81
2022/04/16 13:34:09;;;;;;;22.50;21.30;;;;;;;;;;5094142;28;20445;-81
2022/04/16 13:36:36;;;;;;;22.00;20.90;;;;;;;;;;5093617;28;20411;-82
2022/04/16 13:39:05;;;;;;;22.87;21.67;;;;;;;;;;5093663;28;20455;-82
2022/04/16 13:41:38;;;;;;;22.60;21.40;;;;;;;;;;5093892;28;20412;-81
2022/04/16 13:44:06;;;;;;;22.77;21.47;;;;;;;;;;5093707;28;20400;-81
2022/04/16 13:46:35;;;;;;;22.20;21.00;;;;;;;;;;5093677;28;20483;-82
2022/04/16 13:49:03;;;;;;;22.37;21.00;;;;;;;;;;5094238;28;20484;-82
2022/04/16 13:51:31;;;;;;;22.73;21.33;;;;;;;;;;5093645;28;20449;-82
2022/04/16 13:53:59;;;;;;;22.03;20.93;;;;;;;;;;5093519;28;20469;-81
2022/04/16 13:56:26;;;;;;;21.83;20.73;;;;;;;;;;5093795;28;20686;-82
2022/04/16 13:58:54;;;;;;;22.63;21.33;;;;;;;;;;5093312;28;20919;-81
2022/04/16 14:01:22;;;;;;;21.83;20.70;;;;;;;;;;5093373;28;20908;-81
2022/04/16 14:03:51;;;;;;;21.90;20.70;;;;;;;;;;5093296;28;20491;-81
2022/04/16 14:06:18;;;;;;;21.63;20.43;;;;;;;;;;5093180;28;20462;-82
2022/04/16 14:08:46;;;;;;;22.27;21.17;;;;;;;;;;5093337;28;20463;-82
2022/04/16 14:11:13;;;;;;;22.37;21.23;;;;;;;;;;5093729;28;20483;-82
2022/04/16 14:13:41;;;;;;;21.10;20.00;;;;;;;;;;5093392;28;20420;-82
2022/04/16 14:16:10;;;;;;;21.90;20.60;;;;;;;;;;5092992;28;20452;-82
2022/04/16 14:18:37;;;;;;;21.70;20.60;;;;;;;;;;5093397;28;20518;-82
2022/04/16 14:21:08;;;;;;;21.47;20.37;;;;;;;;;;5093085;28;20444;-82
2022/04/16 14:23:36;;;;;;;21.40;20.30;;;;;;;;;;5093160;28;20408;-82
2022/04/16 14:26:03;;;;;;;22.80;21.50;;;;;;;;;;5092448;28;20420;-84
2022/04/16 14:28:32;;;;;;;22.37;20.97;;;;;;;;;;5093221;28;20873;-83
2022/04/16 14:30:59;;;;;;;21.70;20.50;;;;;;;;;;5093663;28;20479;-82
2022/04/16 14:33:27;;;;;;;20.97;19.80;;;;;;;;;;5093513;28;20457;-83
2022/04/16 14:35:55;;;;;;;21.73;20.50;;;;;;;;;;5092500;28;20552;-82
2022/04/16 14:38:24;;;;;;;22.03;20.83;;;;;;;;;;5093087;28;20512;-83
2022/04/16 14:41:09;;;;;;;21.73;20.53;;;;;;;;;;5092971;28;20934;-83
2022/04/16 14:43:36;;;;;;;22.40;21.10;;;;;;;;;;5093182;28;20461;-82
2022/04/16 14:46:05;;;;;;;22.60;21.40;;;;;;;;;;5093332;28;20438;-83